createdAt,value
2023-05-15T00:01:57.186Z,10.70
2023-05-15T00:11:01.294Z,12.37
2023-05-15T00:13:29.705Z,10.87
2023-05-15T00:15:58.417Z,11.30
2023-05-15T00:18:25.662Z,11.07
2023-05-15T00:20:52.952Z,12.23
2023-05-15T00:26:02.700Z,10.80
2023-05-15T00:28:29.968Z,12.20
2023-05-15T00:30:58.593Z,12.27
2023-05-15T00:33:32.410Z,11.47
2023-05-15T00:36:09.387Z,12.13
2023-05-15T00:38:41.838Z,11.63
2023-05-15T00:41:10.801Z,11.63
2023-05-15T00:43:39.601Z,9.77
2023-05-15T00:46:08.827Z,9.20
2023-05-15T00:48:36.112Z,9.23
2023-05-15T00:51:03.436Z,10.10
2023-05-15T00:53:35.944Z,8.60
2023-05-15T00:56:03.786Z,10.03
2023-05-15T00:58:31.784Z,9.13
2023-05-15T01:00:59.110Z,9.40
2023-05-15T01:03:48.347Z,8.60
2023-05-15T01:09:36.500Z,9.03
2023-05-15T01:12:05.732Z,8.60
2023-05-15T01:14:36.861Z,9.53
2023-05-15T01:19:40.621Z,9.53
2023-05-15T01:24:53.083Z,10.03
2023-05-15T01:27:21.813Z,9.13
2023-05-15T01:29:56.196Z,9.83
2023-05-15T01:32:35.187Z,9.93
2023-05-15T01:35:25.007Z,10.87
2023-05-15T01:37:56.145Z,11.07
2023-05-15T01:40:25.663Z,10.67
2023-05-15T01:42:54.893Z,10.10
2023-05-15T01:45:24.601Z,12.63
2023-05-15T01:47:53.866Z,10.73
2023-05-15T01:50:21.697Z,9.83
2023-05-15T01:52:51.125Z,9.37
2023-05-15T01:55:19.343Z,10.10
2023-05-15T01:57:47.721Z,10.63
2023-05-15T02:00:15.732Z,9.87
2023-05-15T02:06:41.826Z,8.97
2023-05-15T02:09:11.251Z,9.50
2023-05-15T02:11:38.748Z,9.60
2023-05-15T02:14:06.196Z,9.57
2023-05-15T02:16:33.594Z,9.40
2023-05-15T02:19:01.142Z,9.00
2023-05-15T02:21:35.291Z,9.10
2023-05-15T02:24:02.551Z,10.37
2023-05-15T02:26:34.825Z,8.47
2023-05-15T02:29:07.454Z,8.83
2023-05-15T02:31:36.907Z,9.53
2023-05-15T02:38:01.633Z,10.37
2023-05-15T02:40:29.533Z,9.97
2023-05-15T02:42:58.521Z,10.53
2023-05-15T02:45:26.746Z,10.47
2023-05-15T02:47:54.617Z,11.47
2023-05-15T02:50:22.025Z,13.40
2023-05-15T02:52:49.274Z,12.27
2023-05-15T02:55:16.803Z,14.37
2023-05-15T02:57:44.058Z,12.47
2023-05-15T03:00:13.569Z,12.93
2023-05-15T03:02:40.921Z,12.50
2023-05-15T03:05:08.803Z,13.20
2023-05-15T03:07:59.134Z,12.77
2023-05-15T03:13:38.398Z,12.23
2023-05-15T03:16:07.901Z,12.70
2023-05-15T03:18:35.227Z,13.47
2023-05-15T03:21:21.499Z,13.53
2023-05-15T03:23:48.867Z,13.47
2023-05-15T03:26:16.308Z,12.50
2023-05-15T03:28:43.626Z,14.20
2023-05-15T03:31:12.277Z,15.47
2023-05-15T03:33:39.621Z,13.97
2023-05-15T03:36:19.001Z,12.73
2023-05-15T03:38:46.321Z,12.33
2023-05-15T03:41:13.638Z,13.87
2023-05-15T03:43:41.050Z,11.93
2023-05-15T03:46:08.320Z,11.60
2023-05-15T03:48:57.846Z,11.13
2023-05-15T03:51:45.004Z,10.13
2023-05-15T03:54:14.330Z,9.33
2023-05-15T03:56:41.662Z,9.93
2023-05-15T03:59:09.232Z,10.27
2023-05-15T04:01:46.635Z,10.53
2023-05-15T04:04:14.772Z,10.57
2023-05-15T04:09:32.290Z,11.23
2023-05-15T04:11:59.611Z,10.03
2023-05-15T04:14:26.837Z,10.37
2023-05-15T04:16:54.159Z,10.70
2023-05-15T04:19:21.482Z,10.40
2023-05-15T04:28:33.242Z,9.97
2023-05-15T04:31:00.633Z,10.27
2023-05-15T04:33:27.907Z,9.83
2023-05-15T04:35:55.164Z,9.73
2023-05-15T04:38:25.178Z,10.83
2023-05-15T04:40:52.466Z,11.20
2023-05-15T04:43:19.668Z,10.53
2023-05-15T04:45:48.338Z,12.57
2023-05-15T04:48:15.566Z,12.30
2023-05-15T04:50:42.818Z,12.67
2023-05-15T04:53:10.124Z,11.97
2023-05-15T04:55:37.490Z,12.37
2023-05-15T04:58:04.729Z,11.03
2023-05-15T05:00:32.097Z,13.57
2023-05-15T05:03:01.046Z,13.00
2023-05-15T05:05:28.402Z,13.73
2023-05-15T05:08:23.045Z,12.23
2023-05-15T05:14:00.949Z,15.53
2023-05-15T05:16:28.474Z,15.37
2023-05-15T05:18:57.438Z,14.63
2023-05-15T05:21:24.760Z,16.40
2023-05-15T05:24:01.269Z,16.77
2023-05-15T05:26:33.711Z,19.80
2023-05-15T05:29:01.083Z,18.90
2023-05-15T05:31:28.339Z,19.33
2023-05-15T05:33:56.995Z,19.10
2023-05-15T05:36:42.608Z,18.83
2023-05-15T05:39:32.260Z,17.97
2023-05-15T05:42:14.873Z,20.00
2023-05-15T05:44:42.466Z,17.67
2023-05-15T05:47:09.802Z,15.40
2023-05-15T05:49:38.791Z,16.93
2023-05-15T05:52:07.451Z,17.90
2023-05-15T05:54:34.716Z,18.40
2023-05-15T05:57:01.996Z,20.20
2023-05-15T05:59:29.289Z,18.33
2023-05-15T06:01:56.626Z,19.00
2023-05-15T06:04:24.197Z,20.03
2023-05-15T06:06:52.812Z,23.60
2023-05-15T06:09:20.057Z,20.77
2023-05-15T06:11:47.351Z,20.10
2023-05-15T06:14:14.808Z,19.87
2023-05-15T06:16:42.140Z,11.17
2023-05-15T06:19:09.692Z,16.13
2023-05-15T06:21:37.013Z,21.63
2023-05-15T06:24:05.896Z,19.63
2023-05-15T06:26:50.358Z,20.83
2023-05-15T06:29:17.925Z,19.30
2023-05-15T06:31:45.193Z,19.00
2023-05-15T06:34:12.493Z,20.13
2023-05-15T06:40:28.797Z,23.90
2023-05-15T06:42:56.143Z,24.37
2023-05-15T06:45:23.556Z,23.13
2023-05-15T06:47:51.022Z,22.80
2023-05-15T06:50:18.243Z,25.30
2023-05-15T06:52:45.649Z,27.13
2023-05-15T06:58:03.313Z,27.40
2023-05-15T07:00:30.634Z,26.93
2023-05-15T07:02:57.892Z,27.07
2023-05-15T07:05:31.496Z,26.40
2023-05-15T07:08:21.470Z,23.57
2023-05-15T07:10:54.760Z,23.40
2023-05-15T07:13:24.515Z,24.63
2023-05-15T07:15:51.802Z,25.83
2023-05-15T07:18:19.154Z,25.17
2023-05-15T07:20:46.483Z,22.73
2023-05-15T07:23:13.676Z,23.10
2023-05-15T07:25:41.124Z,23.63
2023-05-15T07:28:08.388Z,26.07
2023-05-15T07:30:36.973Z,26.63
2023-05-15T07:33:04.337Z,23.47
2023-05-15T07:39:19.215Z,25.73
2023-05-15T07:41:46.591Z,25.37
2023-05-15T07:44:13.862Z,25.77
2023-05-15T07:46:42.766Z,25.03
2023-05-15T07:49:10.138Z,26.93
2023-05-15T07:51:37.371Z,27.53
2023-05-15T07:54:11.107Z,28.27
2023-05-15T07:56:38.401Z,32.23
2023-05-15T07:59:05.725Z,31.30
2023-05-15T08:01:33.096Z,36.63
2023-05-15T08:04:21.095Z,39.73
2023-05-15T08:07:22.024Z,36.47
2023-05-15T08:09:54.379Z,33.90
2023-05-15T08:12:22.135Z,33.53
2023-05-15T08:14:49.876Z,31.43
2023-05-15T08:17:17.275Z,34.03
2023-05-15T08:19:45.942Z,31.23
2023-05-15T08:22:13.270Z,30.40
2023-05-15T08:24:40.800Z,24.77
2023-05-15T08:27:08.581Z,25.30
2023-05-15T08:29:39.236Z,25.43
2023-05-15T08:32:07.548Z,25.57
2023-05-15T08:34:44.527Z,24.33
2023-05-15T08:37:34.113Z,23.47
2023-05-15T08:40:12.841Z,24.23
2023-05-15T08:42:44.148Z,22.23
2023-05-15T08:45:12.871Z,23.80
2023-05-15T08:47:40.926Z,19.33
2023-05-15T08:50:09.636Z,22.63
2023-05-15T08:52:36.865Z,21.60
2023-05-15T08:55:04.303Z,21.33
2023-05-15T08:57:33.772Z,19.77
2023-05-15T09:00:01.079Z,17.90
2023-05-15T09:02:28.407Z,18.23
2023-05-15T09:04:55.696Z,16.20
2023-05-15T09:07:23.084Z,19.20
2023-05-15T09:09:51.455Z,15.50
2023-05-15T09:12:19.107Z,17.23
2023-05-15T09:14:47.902Z,16.93
2023-05-15T09:17:15.182Z,19.03
2023-05-15T09:19:42.737Z,18.30
2023-05-15T09:22:16.445Z,17.37
2023-05-15T09:25:11.302Z,18.70
2023-05-15T09:30:50.468Z,15.03
2023-05-15T09:33:17.732Z,17.23
2023-05-15T09:35:45.018Z,17.57
2023-05-15T09:38:12.946Z,17.83
2023-05-15T09:40:40.661Z,15.77
2023-05-15T09:46:07.932Z,17.03
2023-05-15T09:48:35.499Z,17.13
2023-05-15T09:51:02.803Z,17.40
2023-05-15T09:53:39.170Z,17.33
2023-05-15T09:56:31.133Z,15.13
2023-05-15T09:59:17.622Z,13.93
2023-05-15T10:01:46.882Z,11.37
2023-05-15T10:04:14.701Z,9.33
2023-05-15T10:06:43.158Z,9.10
2023-05-15T10:09:10.993Z,8.67
2023-05-15T10:11:39.094Z,8.57
2023-05-15T10:14:11.989Z,6.50
2023-05-15T10:16:39.899Z,6.63
2023-05-15T10:19:09.466Z,6.87
2023-05-15T10:21:37.474Z,6.07
2023-05-15T10:27:52.654Z,6.30
2023-05-15T10:30:20.209Z,5.83
2023-05-15T10:32:48.061Z,6.03
2023-05-15T10:35:16.639Z,5.70
2023-05-15T10:37:44.747Z,5.27
2023-05-15T10:40:13.613Z,5.10
2023-05-15T10:42:47.770Z,3.87
2023-05-15T10:45:15.153Z,4.30
2023-05-15T10:47:43.387Z,4.70
2023-05-15T10:50:13.100Z,5.23
2023-05-15T10:52:59.191Z,5.60
2023-05-15T10:55:48.568Z,7.07
2023-05-15T10:58:36.074Z,6.33
2023-05-15T11:01:04.921Z,6.23
2023-05-15T11:03:48.802Z,4.37
2023-05-15T11:06:17.346Z,4.10
2023-05-15T11:08:44.568Z,4.70
2023-05-15T11:14:19.058Z,4.33
2023-05-15T11:17:03.304Z,4.40
2023-05-15T11:19:34.807Z,4.00
2023-05-15T11:22:28.306Z,4.07
2023-05-15T11:27:55.837Z,4.70
2023-05-15T11:30:34.674Z,3.83
2023-05-15T11:33:04.907Z,4.40
2023-05-15T11:35:33.713Z,4.00
2023-05-15T11:38:03.189Z,3.63
2023-05-15T11:40:31.068Z,2.87
2023-05-15T11:43:18.496Z,4.53
2023-05-15T11:45:47.809Z,4.70
2023-05-15T11:48:17.693Z,4.20
2023-05-15T11:50:45.579Z,3.80
2023-05-15T11:53:29.480Z,4.67
2023-05-15T11:56:17.704Z,4.17
2023-05-15T11:58:45.061Z,4.37
2023-05-15T12:01:12.374Z,3.87
2023-05-15T12:03:41.237Z,4.63
2023-05-15T12:06:08.770Z,3.70
2023-05-15T12:08:36.799Z,4.97
2023-05-15T12:11:09.617Z,4.10
2023-05-15T12:13:37.024Z,3.87
2023-05-15T12:16:04.830Z,3.67
2023-05-15T12:18:32.181Z,4.40
2023-05-15T12:21:06.824Z,3.93
2023-05-15T12:27:15.572Z,3.60
2023-05-15T12:29:43.438Z,3.60
2023-05-15T12:32:11.008Z,4.37
2023-05-15T12:34:38.603Z,2.90
2023-05-15T12:37:07.310Z,3.47
2023-05-15T12:39:34.587Z,3.60
2023-05-15T12:42:01.990Z,3.83
2023-05-15T12:44:29.353Z,2.90
2023-05-15T12:46:56.628Z,3.90
2023-05-15T12:49:23.982Z,3.53
2023-05-15T12:52:18.110Z,3.37
2023-05-15T12:55:00.547Z,3.10
2023-05-15T12:57:28.031Z,2.90
2023-05-15T12:59:55.231Z,3.13
2023-05-15T13:02:23.490Z,3.33
2023-05-15T13:04:50.875Z,3.67
2023-05-15T13:07:19.521Z,2.70
2023-05-15T13:10:02.655Z,3.83
2023-05-15T13:12:35.648Z,3.67
2023-05-15T13:15:02.945Z,2.80
2023-05-15T13:17:30.621Z,2.83
2023-05-15T13:20:08.093Z,2.93
2023-05-15T13:25:43.634Z,3.17
2023-05-15T13:28:11.220Z,3.10
2023-05-15T13:30:38.506Z,2.33
2023-05-15T13:33:05.832Z,2.93
2023-05-15T13:35:33.186Z,2.77
2023-05-15T13:38:01.790Z,2.63
2023-05-15T13:40:37.007Z,2.50
2023-05-15T13:43:04.356Z,2.63
2023-05-15T13:45:31.675Z,3.03
2023-05-15T13:47:59.001Z,2.80
2023-05-15T13:50:47.250Z,2.50
2023-05-15T13:53:42.726Z,2.63
2023-05-15T13:56:17.528Z,3.20
2023-05-15T13:58:45.272Z,2.83
2023-05-15T14:01:12.639Z,4.00
2023-05-15T14:03:39.986Z,3.80
2023-05-15T14:06:07.610Z,4.40
2023-05-15T14:08:34.908Z,3.40
2023-05-15T14:11:02.304Z,2.67
2023-05-15T14:13:32.390Z,3.27
2023-05-15T14:16:01.380Z,3.40
2023-05-15T14:18:29.957Z,2.60
2023-05-15T14:26:30.242Z,3.33
2023-05-15T14:29:00.250Z,4.03
2023-05-15T14:31:27.573Z,3.80
2023-05-15T14:33:54.793Z,3.47
2023-05-15T14:36:22.110Z,3.40
2023-05-15T14:38:49.351Z,4.10
2023-05-15T14:41:22.102Z,4.70
2023-05-15T14:43:49.364Z,3.57
2023-05-15T14:46:18.064Z,4.40
2023-05-15T14:48:45.368Z,4.17
2023-05-15T14:51:32.543Z,4.10
2023-05-15T14:54:17.906Z,4.13
2023-05-15T14:56:45.152Z,4.57
2023-05-15T14:59:12.441Z,4.10
2023-05-15T15:01:41.028Z,3.80
2023-05-15T15:04:08.443Z,4.40
2023-05-15T15:06:35.815Z,3.93
2023-05-15T15:11:52.260Z,4.43
2023-05-15T15:14:19.519Z,4.73
2023-05-15T15:16:48.220Z,4.87
2023-05-15T15:19:37.352Z,3.87
2023-05-15T15:22:35.683Z,3.93
2023-05-15T15:25:19.134Z,3.50
2023-05-15T15:27:47.605Z,4.27
2023-05-15T15:30:15.525Z,4.80
2023-05-15T15:32:44.670Z,4.93
2023-05-15T15:35:12.287Z,4.07
2023-05-15T15:37:39.599Z,3.80
2023-05-15T15:40:08.204Z,3.87
2023-05-15T15:42:35.944Z,5.00
2023-05-15T15:45:03.394Z,4.27
2023-05-15T15:47:30.667Z,3.97
2023-05-15T15:53:21.929Z,3.93
2023-05-15T15:55:49.362Z,5.10
2023-05-15T15:58:16.601Z,5.20
2023-05-15T16:00:43.867Z,4.27
2023-05-15T16:03:11.159Z,5.23
2023-05-15T16:05:38.424Z,4.27
2023-05-15T16:08:05.915Z,4.90
2023-05-15T16:10:34.515Z,5.83
2023-05-15T16:13:01.786Z,4.50
2023-05-15T16:15:29.049Z,5.13
2023-05-15T16:17:56.366Z,4.67
2023-05-15T16:20:23.942Z,4.40
2023-05-15T16:22:51.506Z,4.07
2023-05-15T16:25:18.740Z,3.17
2023-05-15T16:27:47.391Z,4.60
2023-05-15T16:30:14.888Z,4.63
2023-05-15T16:32:42.213Z,4.23
2023-05-15T16:35:09.816Z,4.07
2023-05-15T16:37:37.128Z,3.50
2023-05-15T16:40:04.596Z,4.43
2023-05-15T16:42:35.847Z,4.17
2023-05-15T16:45:04.825Z,4.30
2023-05-15T16:47:32.180Z,3.93
2023-05-15T16:49:59.494Z,3.97
2023-05-15T16:52:26.738Z,3.90
2023-05-15T16:54:54.040Z,4.00
2023-05-15T16:57:21.673Z,4.53
2023-05-15T16:59:49.052Z,3.27
2023-05-15T17:02:17.787Z,4.30
2023-05-15T17:04:45.165Z,3.43
2023-05-15T17:07:12.405Z,3.90
2023-05-15T17:10:01.484Z,3.97
2023-05-15T17:12:51.220Z,4.30
2023-05-15T17:15:18.532Z,3.50
2023-05-15T17:17:47.191Z,3.70
2023-05-15T17:20:14.450Z,3.93
2023-05-15T17:22:41.758Z,3.63
2023-05-15T17:25:09.707Z,3.70
2023-05-15T17:27:36.927Z,3.77
2023-05-15T17:30:04.447Z,3.23
2023-05-15T17:32:31.769Z,3.50
2023-05-15T17:35:00.391Z,3.07
2023-05-15T17:37:27.685Z,3.30
2023-05-15T17:39:54.934Z,3.23
2023-05-15T17:42:22.207Z,3.13
2023-05-15T17:44:49.396Z,3.40
2023-05-15T17:47:16.612Z,3.10
2023-05-15T17:49:43.869Z,3.57
2023-05-15T17:52:12.429Z,3.30
2023-05-15T17:54:39.788Z,3.13
2023-05-15T17:57:07.074Z,3.57
2023-05-15T17:59:34.460Z,4.27
2023-05-15T18:02:02.045Z,3.43
2023-05-15T18:04:31.809Z,3.77
2023-05-15T18:06:59.094Z,4.60
2023-05-15T18:09:27.948Z,3.70
2023-05-15T18:11:55.353Z,3.50
2023-05-15T18:14:22.635Z,3.23
2023-05-15T18:16:50.250Z,3.70
2023-05-15T18:19:17.503Z,4.20
2023-05-15T18:21:44.744Z,3.73
2023-05-15T18:24:11.956Z,4.40
2023-05-15T18:26:40.589Z,4.60
2023-05-15T18:29:07.921Z,3.83
2023-05-15T18:31:35.362Z,4.20
2023-05-15T18:34:02.648Z,3.77
2023-05-15T18:36:29.875Z,4.43
2023-05-15T18:38:57.154Z,3.53
2023-05-15T18:41:24.391Z,3.70
2023-05-15T18:43:53.047Z,5.10
2023-05-15T18:46:20.353Z,4.37
2023-05-15T18:48:47.648Z,4.10
2023-05-15T18:51:14.985Z,4.13
2023-05-15T18:53:42.320Z,4.20
2023-05-15T18:56:09.769Z,4.50
2023-05-15T18:58:37.017Z,3.80
2023-05-15T19:01:05.671Z,4.43
2023-05-15T19:03:33.696Z,4.30
2023-05-15T19:06:01.255Z,4.07
2023-05-15T19:08:28.625Z,4.67
2023-05-15T19:10:55.854Z,8.70
2023-05-15T19:13:23.059Z,3.83
2023-05-15T19:15:53.661Z,3.30
2023-05-15T19:18:22.249Z,3.57
2023-05-15T19:20:49.564Z,3.80
2023-05-15T19:23:16.805Z,4.77
2023-05-15T19:25:44.107Z,4.37
2023-05-15T19:28:11.517Z,3.93
2023-05-15T19:30:38.849Z,3.67
2023-05-15T19:33:06.185Z,3.97
2023-05-15T19:35:37.317Z,3.63
2023-05-15T19:38:05.040Z,4.00
2023-05-15T19:40:32.311Z,3.47
2023-05-15T19:42:59.552Z,3.67
2023-05-15T19:45:26.776Z,4.07
2023-05-15T19:47:54.005Z,3.30
2023-05-15T19:50:21.260Z,4.30
2023-05-15T19:52:49.920Z,3.60
2023-05-15T19:55:17.396Z,3.43
2023-05-15T19:57:44.784Z,4.00
2023-05-15T20:00:12.785Z,3.90
2023-05-15T20:02:40.091Z,2.87
2023-05-15T20:05:07.582Z,4.13
2023-05-15T20:07:35.246Z,4.07
2023-05-15T20:10:03.861Z,3.60
2023-05-15T20:12:31.226Z,3.33
2023-05-15T20:14:58.786Z,3.40
2023-05-15T20:17:26.141Z,4.63
2023-05-15T20:19:53.401Z,3.60
2023-05-15T20:22:20.921Z,3.47
2023-05-15T20:24:48.241Z,3.47
2023-05-15T20:27:16.883Z,3.40
2023-05-15T20:29:44.063Z,3.63
2023-05-15T20:32:11.378Z,3.57
2023-05-15T20:34:39.542Z,3.33
2023-05-15T20:37:08.448Z,4.43
2023-05-15T20:39:35.622Z,4.30
2023-05-15T20:42:02.858Z,3.83
2023-05-15T20:44:31.457Z,2.90
2023-05-15T20:46:59.919Z,3.10
2023-05-15T20:49:27.218Z,3.10
2023-05-15T20:51:54.446Z,3.00
2023-05-15T20:54:21.729Z,4.23
2023-05-15T20:56:48.929Z,3.37
2023-05-15T20:59:16.210Z,3.03
2023-05-15T21:01:45.028Z,3.70
2023-05-15T21:04:12.460Z,3.70
2023-05-15T21:06:39.791Z,2.80
2023-05-15T21:09:07.004Z,3.30
2023-05-15T21:11:34.231Z,3.90
2023-05-15T21:14:01.527Z,3.20
2023-05-15T21:16:28.745Z,3.53
2023-05-15T21:18:57.444Z,4.00
2023-05-15T21:21:24.695Z,4.57
2023-05-15T21:23:51.951Z,4.47
2023-05-15T21:26:19.212Z,3.53
2023-05-15T21:28:46.471Z,3.40
2023-05-15T21:31:13.800Z,3.47
2023-05-15T21:33:41.137Z,3.80
2023-05-15T21:36:10.153Z,3.37
2023-05-15T21:38:37.466Z,4.17
2023-05-15T21:41:04.698Z,4.07
2023-05-15T21:43:31.966Z,3.70
2023-05-15T21:45:59.294Z,3.97
2023-05-15T21:48:26.557Z,3.17
2023-05-15T21:50:55.591Z,4.27
2023-05-15T21:53:24.960Z,3.07
2023-05-15T21:55:55.113Z,3.20
2023-05-15T21:58:22.433Z,3.67
2023-05-15T22:00:49.736Z,3.37
